Time;durP1;ratioP1;P1;durP2;ratioP2;P2;SDS_P1;SDS_P2;PMS_P1;PMS_P2;Temp;Humidity;BMP_temperature;BMP_pressure;BME280_temperature;BME280_humidity;BME280_pressure;Samples;Min_cycle;Max_cycle;Signal;HPM_P1;HPM_P2
2021/06/13 00:00:45;;;;;;;8.15;5.60;;;;;;;17.15;86.12;98174.34;1890044;76;22139;-62
2021/06/13 00:03:20;;;;;;;8.25;5.47;;;;;;;17.09;86.33;98174.49;1870620;76;22165;-62
2021/06/13 00:05:55;;;;;;;9.53;5.28;;;;;;;17.05;86.55;98172.89;1870563;76;22133;-61
2021/06/13 00:08:30;;;;;;;9.28;5.30;;;;;;;17.03;86.78;98171.61;1870711;76;22159;-61
2021/06/13 00:11:05;;;;;;;9.83;4.92;;;;;;;17.01;87.00;98164.73;1870969;76;22580;-60
2021/06/13 00:13:40;;;;;;;8.08;5.97;;;;;;;16.96;87.36;98164.86;1870611;76;22122;-62
2021/06/13 00:16:17;;;;;;;8.25;5.47;;;;;;;16.91;87.68;98156.31;1870606;76;22113;-62
2021/06/13 00:18:52;;;;;;;12.58;5.67;;;;;;;16.86;87.80;98149.06;1870625;76;22113;-61
2021/06/13 00:21:26;;;;;;;11.50;5.72;;;;;;;16.83;87.96;98150.45;1870614;76;22562;-59
2021/06/13 00:24:02;;;;;;;9.05;6.05;;;;;;;16.81;88.14;98143.97;1889912;76;22127;-61
2021/06/13 00:26:38;;;;;;;12.55;5.75;;;;;;;16.82;88.11;98135.73;1870633;76;22164;-63
2021/06/13 00:29:12;;;;;;;7.50;5.33;;;;;;;16.81;88.10;98132.70;1889872;76;22570;-63
2021/06/13 00:31:59;;;;;;;7.90;5.15;;;;;;;16.73;88.09;98130.27;1791709;80;21150;-61
2021/06/13 00:34:39;;;;;;;8.35;5.58;;;;;;;16.77;88.03;98121.48;1869787;76;22136;-62
2021/06/13 00:37:14;;;;;;;9.50;6.12;;;;;;;16.78;87.95;98121.91;1870625;76;22169;-61
2021/06/13 00:39:49;;;;;;;7.58;5.33;;;;;;;16.80;87.81;98121.43;1835167;77;22156;-59
2021/06/13 00:42:37;;;;;;;8.05;5.33;;;;;;;16.77;87.43;98117.58;1793865;79;21703;-64
2021/06/13 00:45:12;;;;;;;7.50;5.40;;;;;;;16.83;87.15;98114.83;1870606;76;22121;-62
2021/06/13 00:47:49;;;;;;;7.20;4.97;;;;;;;16.85;86.98;98109.13;1854726;76;27898;-60
2021/06/13 00:50:40;;;;;;;9.90;4.75;;;;;;;16.86;86.63;98117.34;1827485;78;21142;-61
2021/06/13 00:53:16;;;;;;;8.60;4.90;;;;;;;16.96;85.96;98112.73;1870621;76;22124;-61
2021/06/13 00:55:52;;;;;;;10.55;5.65;;;;;;;16.98;85.66;98110.94;1854721;76;28378;-63
2021/06/13 00:58:27;;;;;;;8.58;5.08;;;;;;;17.04;85.46;98113.81;1870607;76;22112;-62
2021/06/13 01:01:02;;;;;;;9.30;5.15;;;;;;;17.03;85.18;98110.36;1870612;76;22584;-60
2021/06/13 01:03:37;;;;;;;9.10;5.60;;;;;;;17.01;85.17;98104.78;1870645;76;22171;-65
2021/06/13 01:06:23;;;;;;;6.72;4.80;;;;;;;16.99;85.06;98100.91;1889963;76;22164;-63
2021/06/13 01:09:04;;;;;;;8.70;5.35;;;;;;;16.98;84.89;98099.20;1870574;76;22177;-61
2021/06/13 01:11:58;;;;;;;10.68;5.12;;;;;;;16.91;84.77;98098.52;1827481;77;21130;-62
2021/06/13 01:14:48;;;;;;;8.15;4.70;;;;;;;16.95;84.47;98094.09;1870465;76;22143;-64
2021/06/13 01:17:33;;;;;;;9.48;5.28;;;;;;;16.98;84.26;98087.94;1870569;76;22145;-63
2021/06/13 01:20:29;;;;;;;12.82;5.35;;;;;;;16.95;83.98;98088.03;1827785;78;21676;-62
2021/06/13 01:23:32;;;;;;;8.03;4.80;;;;;;;17.00;83.49;98081.78;1870636;76;22609;-62
2021/06/13 01:26:28;;;;;;;10.05;4.65;;;;;;;17.01;82.98;98076.95;1889890;76;22673;-63
2021/06/13 01:29:13;;;;;;;7.25;4.45;;;;;;;17.01;82.67;98076.95;1870628;76;22145;-61
2021/06/13 01:31:59;;;;;;;9.65;5.60;;;;;;;17.02;82.58;98077.38;1889874;76;22156;-62
2021/06/13 01:34:47;;;;;;;12.00;5.37;;;;;;;17.02;82.52;98071.28;1870627;76;22145;-66
2021/06/13 01:37:26;;;;;;;7.35;5.20;;;;;;;17.03;82.43;98066.04;1870626;76;22623;-65
2021/06/13 01:40:09;;;;;;;6.37;5.30;;;;;;;17.02;82.49;98064.34;1870634;76;22117;-63
2021/06/13 01:42:51;;;;;;;9.88;5.45;;;;;;;16.99;82.76;98060.95;1889936;76;22548;-62
2021/06/13 01:45:41;;;;;;;11.12;5.72;;;;;;;16.94;83.06;98058.48;1889868;76;22196;-63
2021/06/13 01:48:28;;;;;;;11.50;4.87;;;;;;;16.87;83.38;98064.80;1791763;80;21229;-63
2021/06/13 01:51:04;;;;;;;8.30;5.40;;;;;;;16.87;83.89;98055.22;1870652;76;22508;-63
2021/06/13 01:53:41;;;;;;;7.53;5.78;;;;;;;16.86;84.21;98053.48;1854754;76;27936;-64
2021/06/13 01:56:16;;;;;;;7.25;5.28;;;;;;;16.89;84.38;98053.85;1889916;76;22193;-58
2021/06/13 01:58:53;;;;;;;8.15;5.40;;;;;;;16.85;84.54;98050.95;1873882;76;38212;-61
2021/06/13 02:01:28;;;;;;;9.25;5.58;;;;;;;16.86;84.73;98048.73;1855024;76;27905;-61
2021/06/13 02:04:05;;;;;;;7.92;5.28;;;;;;;16.89;84.89;98046.03;1889927;76;22140;-61
2021/06/13 02:06:53;;;;;;;10.68;5.92;;;;;;;16.86;85.16;98045.67;1889909;76;22115;-61
2021/06/13 02:09:30;;;;;;;8.85;6.12;;;;;;;16.83;85.31;98047.53;1870636;76;22528;-61
2021/06/13 02:12:09;;;;;;;9.48;5.60;;;;;;;16.79;85.51;98038.08;1889917;76;22112;-61
2021/06/13 02:14:46;;;;;;;6.30;4.80;;;;;;;16.75;85.86;98020.81;1870861;76;22220;-61
2021/06/13 02:17:20;;;;;;;8.78;4.58;;;;;;;16.77;86.27;98032.05;1870864;76;22125;-62
2021/06/13 02:19:55;;;;;;;8.00;5.15;;;;;;;16.91;86.37;98020.78;1854743;76;27915;-61
2021/06/13 02:22:33;;;;;;;10.45;5.35;;;;;;;17.13;85.90;98027.06;1873946;76;27913;-61
2021/06/13 02:25:08;;;;;;;8.83;5.17;;;;;;;17.31;85.31;98026.09;1854925;76;28356;-63
2021/06/13 02:27:43;;;;;;;8.53;4.90;;;;;;;17.48;84.74;98028.19;1870835;76;20204;-64
2021/06/13 02:30:21;;;;;;;9.40;5.92;;;;;;;17.55;84.21;98033.16;1889919;76;20100;-62
2021/06/13 02:32:57;;;;;;;6.90;4.97;;;;;;;17.60;83.73;98031.68;1870868;76;20459;-65
2021/06/13 02:35:30;;;;;;;7.47;5.10;;;;;;;17.63;83.43;98032.91;1870824;76;22141;-61
2021/06/13 02:38:06;;;;;;;9.65;5.12;;;;;;;17.69;83.26;98026.17;1889916;76;22271;-62
2021/06/13 02:40:56;;;;;;;11.53;5.55;;;;;;;17.69;83.02;98024.02;1791573;80;21568;-64
2021/06/13 02:43:31;;;;;;;8.70;4.87;;;;;;;17.82;82.53;98020.13;1870648;76;22113;-62
2021/06/13 02:46:05;;;;;;;7.22;4.95;;;;;;;17.87;82.17;98011.69;1870595;76;22157;-64
2021/06/13 02:48:40;;;;;;;11.68;4.70;;;;;;;17.94;81.80;98009.73;1889885;76;22222;-59
2021/06/13 02:51:19;;;;;;;8.73;5.33;;;;;;;18.01;81.30;98007.30;1889890;76;22530;-63
2021/06/13 02:53:56;;;;;;;9.98;5.10;;;;;;;18.08;80.85;98006.18;1870873;76;22528;-63
2021/06/13 02:56:57;;;;;;;8.35;5.15;;;;;;;18.10;80.46;98007.45;1870633;76;22121;-60
2021/06/13 02:59:42;;;;;;;8.93;5.75;;;;;;;18.15;80.11;98008.98;1889890;76;22108;-61
2021/06/13 03:02:27;;;;;;;8.70;5.67;;;;;;;18.19;79.77;98009.29;1854574;76;27892;-61
2021/06/13 03:05:06;;;;;;;8.63;5.03;;;;;;;18.28;79.36;98008.09;1889880;76;22542;-60
2021/06/13 03:07:56;;;;;;;7.87;5.00;;;;;;;18.30;78.97;98008.90;1861502;77;21142;-61
2021/06/13 03:10:31;;;;;;;8.23;5.08;;;;;;;18.46;78.52;98013.58;1870647;76;22117;-63
2021/06/13 03:13:07;;;;;;;6.33;4.92;;;;;;;18.48;78.17;98014.38;1889935;76;22104;-62
2021/06/13 03:15:44;;;;;;;11.05;5.45;;;;;;;18.50;77.93;98013.41;1854753;76;27915;-63
2021/06/13 03:18:19;;;;;;;11.25;5.33;;;;;;;18.58;77.66;98012.67;1854946;76;28341;-62
2021/06/13 03:20:57;;;;;;;12.45;5.80;;;;;;;18.66;77.30;98017.62;1870498;76;22584;-62
2021/06/13 03:23:43;;;;;;;9.58;4.83;;;;;;;18.62;77.29;98013.40;1827884;78;21250;-59
2021/06/13 03:26:20;;;;;;;8.95;5.40;;;;;;;18.66;77.39;98011.08;1854690;76;27871;-61
2021/06/13 03:28:57;;;;;;;9.70;5.47;;;;;;;18.76;77.12;98008.56;1870634;76;22145;-60
2021/06/13 03:31:46;;;;;;;10.18;5.40;;;;;;;18.71;76.69;98015.69;1806944;78;21161;-61
2021/06/13 03:34:21;;;;;;;9.90;5.60;;;;;;;18.77;76.70;98012.02;1873853;76;27922;-62
2021/06/13 03:36:57;;;;;;;9.15;5.20;;;;;;;18.85;76.47;98009.53;1854668;76;28019;-63
2021/06/13 03:39:34;;;;;;;16.40;5.47;;;;;;;18.98;76.27;98010.34;1889946;76;20208;-61
2021/06/13 03:42:12;;;;;;;7.10;4.45;;;;;;;19.07;75.61;98007.39;1889910;76;22120;-64
2021/06/13 03:44:47;;;;;;;7.33;4.65;;;;;;;19.16;74.87;98008.34;1889905;76;22112;-62
2021/06/13 03:47:23;;;;;;;7.00;4.80;;;;;;;19.23;74.88;98011.13;1889927;76;22108;-63
2021/06/13 03:50:12;;;;;;;7.47;5.20;;;;;;;19.25;74.46;98005.35;1861298;77;21576;-62
2021/06/13 03:52:47;;;;;;;8.35;5.47;;;;;;;19.29;74.07;98008.25;1870632;76;22121;-63
2021/06/13 03:55:22;;;;;;;10.72;6.03;;;;;;;19.35;74.13;98003.69;1870646;76;22113;-61
2021/06/13 03:57:59;;;;;;;7.12;5.50;;;;;;;19.36;74.15;98004.08;1870572;76;22152;-60
2021/06/13 04:00:35;;;;;;;8.78;5.60;;;;;;;19.38;74.00;98002.25;1870653;76;22551;-62
2021/06/13 04:03:21;;;;;;;7.95;5.12;;;;;;;19.37;74.26;98011.03;1827488;77;21150;-61
2021/06/13 04:05:58;;;;;;;7.80;5.17;;;;;;;19.53;73.71;98006.41;1854744;76;28454;-61
2021/06/13 04:08:35;;;;;;;9.35;4.90;;;;;;;19.66;73.39;98005.45;1870690;76;22148;-62
2021/06/13 04:11:12;;;;;;;7.00;5.20;;;;;;;19.77;73.06;98004.18;1889869;76;22584;-62
2021/06/13 04:13:47;;;;;;;10.00;4.62;;;;;;;19.79;72.77;97998.43;1870639;76;22120;-61
2021/06/13 04:16:23;;;;;;;10.38;5.22;;;;;;;19.85;72.63;98007.36;1854765;76;28326;-61
2021/06/13 04:19:04;;;;;;;8.73;5.25;;;;;;;20.01;72.26;98005.78;1869810;76;22583;-63
2021/06/13 04:21:40;;;;;;;7.55;5.10;;;;;;;20.08;72.03;97997.21;1854770;76;27900;-61
2021/06/13 04:24:17;;;;;;;8.73;5.33;;;;;;;20.12;71.60;97994.83;1889934;76;22108;-60
2021/06/13 04:26:55;;;;;;;9.60;5.00;;;;;;;20.08;71.73;97991.51;1870659;76;22147;-63
2021/06/13 04:29:29;;;;;;;12.10;5.37;;;;;;;19.99;72.06;97990.58;1870527;76;22662;-62
2021/06/13 04:32:15;;;;;;;10.68;5.53;;;;;;;20.01;72.06;97994.45;1760457;81;21280;-63
2021/06/13 04:34:49;;;;;;;7.72;5.22;;;;;;;20.18;71.54;97993.74;1870656;76;22140;-62
2021/06/13 04:37:24;;;;;;;7.05;5.20;;;;;;;20.25;71.41;98003.02;1870641;76;22141;-63
2021/06/13 04:40:00;;;;;;;12.35;5.00;;;;;;;20.39;71.24;98001.95;1870394;76;22272;-62
2021/06/13 04:42:36;;;;;;;12.93;5.12;;;;;;;20.53;70.79;98008.76;1889942;76;22108;-63
2021/06/13 04:45:22;;;;;;;8.78;5.00;;;;;;;20.57;69.85;98005.09;1861287;77;21114;-64
2021/06/13 04:47:56;;;;;;;9.90;5.22;;;;;;;20.77;69.15;98003.34;1870653;76;22108;-62
2021/06/13 04:50:37;;;;;;;9.93;5.70;;;;;;;20.90;68.79;98009.73;1854547;76;28036;-62
2021/06/13 04:53:52;;;;;;;8.25;5.20;;;;;;;20.99;68.35;98000.59;1853826;76;28109;-61
2021/06/13 04:56:48;;;;;;;7.10;4.60;;;;;;;21.13;67.33;98003.87;1870605;76;22117;-60
2021/06/13 04:59:22;;;;;;;10.58;4.97;;;;;;;21.17;67.07;98004.13;1870661;76;22113;-61
2021/06/13 05:02:00;;;;;;;10.90;4.47;;;;;;;21.22;66.69;97996.89;1889983;76;22163;-65
2021/06/13 05:04:33;;;;;;;7.45;4.35;;;;;;;21.17;66.31;98011.53;1854954;76;28016;-64
2021/06/13 05:07:08;;;;;;;8.80;4.28;;;;;;;21.18;66.10;98008.44;1889932;76;22163;-62
2021/06/13 05:09:44;;;;;;;8.38;4.85;;;;;;;21.14;66.25;97996.37;1873823;76;27925;-65
2021/06/13 05:12:19;;;;;;;6.33;4.20;;;;;;;21.17;66.17;97999.72;1873813;76;27943;-64
2021/06/13 05:14:53;;;;;;;5.87;4.05;;;;;;;21.24;66.07;98001.58;1870655;76;22595;-62
2021/06/13 05:17:29;;;;;;;7.17;4.30;;;;;;;21.22;65.90;97998.20;1854587;76;27902;-61
2021/06/13 05:20:06;;;;;;;9.35;4.60;;;;;;;21.33;65.92;97997.20;1870559;76;22592;-61
2021/06/13 05:23:02;;;;;;;5.95;3.90;;;;;;;21.35;65.36;97999.30;1827705;77;21265;-61
2021/06/13 05:25:39;;;;;;;6.95;4.40;;;;;;;21.42;65.44;97991.56;1854547;76;27915;-63
2021/06/13 05:28:15;;;;;;;8.68;4.47;;;;;;;21.56;65.06;97992.66;1870508;76;22136;-64
2021/06/13 05:30:51;;;;;;;6.08;4.20;;;;;;;21.66;64.33;97986.02;1870543;76;22596;-64
2021/06/13 05:33:26;;;;;;;11.63;4.17;;;;;;;21.73;64.28;97982.17;1870623;76;22121;-61
2021/06/13 05:36:01;;;;;;;8.28;4.28;;;;;;;21.87;64.06;97984.09;1870654;76;22161;-62
2021/06/13 05:38:39;;;;;;;6.95;4.10;;;;;;;21.98;63.17;97979.59;1873883;76;28446;-61
2021/06/13 05:41:13;;;;;;;6.92;4.12;;;;;;;22.10;62.77;97973.71;1889928;76;22132;-63
2021/06/13 05:43:54;;;;;;;6.17;3.65;;;;;;;22.19;62.44;97975.03;1890055;76;22179;-62
2021/06/13 05:46:41;;;;;;;6.37;3.75;;;;;;;22.22;62.16;97979.69;1791742;80;21138;-63
2021/06/13 05:49:16;;;;;;;7.85;4.03;;;;;;;22.40;62.12;97980.50;1860702;76;22200;-62
2021/06/13 05:51:50;;;;;;;7.25;4.42;;;;;;;22.58;61.36;97976.04;1864447;76;22203;-64
2021/06/13 05:54:26;;;;;;;6.78;3.65;;;;;;;23.41;59.62;97975.45;1865790;76;20119;-63
2021/06/13 05:57:01;;;;;;;7.85;3.98;;;;;;;25.06;55.35;97982.24;1848487;76;22172;-63
2021/06/13 05:59:47;;;;;;;4.87;3.10;;;;;;;26.48;50.88;97989.13;1804352;78;21785;-62
2021/06/13 06:02:21;;;;;;;5.50;2.92;;;;;;;27.99;47.40;97999.52;1857550;76;22174;-63
2021/06/13 06:04:56;;;;;;;9.08;3.27;;;;;;;29.00;44.15;97996.95;1852773;76;22175;-62
2021/06/13 06:07:31;;;;;;;5.75;2.98;;;;;;;29.86;42.54;98012.59;1852102;76;22584;-64
2021/06/13 06:10:10;;;;;;;5.33;2.87;;;;;;;30.56;41.48;98025.78;1839164;76;27896;-62
2021/06/13 06:12:58;;;;;;;3.98;2.72;;;;;;;31.91;38.54;98028.98;1855079;76;22201;-62
2021/06/13 06:15:45;;;;;;;6.10;2.58;;;;;;;32.82;35.63;98048.95;1832200;77;21554;-62
2021/06/13 06:18:19;;;;;;;7.72;2.72;;;;;;;33.62;34.97;98039.92;1870683;76;22083;-66
2021/06/13 06:20:54;;;;;;;5.85;2.55;;;;;;;34.34;33.16;98045.25;1870769;76;22050;-63
2021/06/13 06:23:28;;;;;;;4.60;2.62;;;;;;;34.90;32.46;98050.64;1870659;76;22055;-62
2021/06/13 06:26:15;;;;;;;4.67;2.40;;;;;;;35.68;31.46;98055.52;1827705;78;21277;-61
2021/06/13 06:28:50;;;;;;;4.95;2.50;;;;;;;36.11;29.33;98057.61;1854594;76;28329;-64
2021/06/13 06:31:25;;;;;;;3.77;2.08;;;;;;;35.99;29.71;98059.23;1870607;76;22070;-65
2021/06/13 06:33:59;;;;;;;5.00;2.65;;;;;;;36.20;29.85;98060.61;1889876;76;22531;-63
2021/06/13 06:36:34;;;;;;;5.20;3.00;;;;;;;36.57;28.88;98066.00;1889901;76;22057;-65
2021/06/13 06:39:21;;;;;;;4.53;2.33;;;;;;;36.45;28.91;98064.95;1861342;77;21122;-63
2021/06/13 06:42:06;;;;;;;6.25;2.50;;;;;;;36.14;29.11;98071.53;1869745;76;22058;-60
2021/06/13 06:44:42;;;;;;;5.12;2.80;;;;;;;35.90;29.39;98054.02;1870431;76;22087;-63
2021/06/13 06:47:27;;;;;;;7.20;2.50;;;;;;;35.71;29.76;98060.55;1827686;77;21142;-63
2021/06/13 06:50:06;;;;;;;4.80;2.60;;;;;;;35.55;30.19;98070.22;1873919;76;28322;-61
2021/06/13 06:52:40;;;;;;;4.85;2.60;;;;;;;35.67;30.30;98065.90;1855004;76;27925;-60
2021/06/13 06:55:17;;;;;;;4.92;2.70;;;;;;;35.77;30.48;98078.16;1870468;76;22553;-64
2021/06/13 06:57:52;;;;;;;5.67;2.33;;;;;;;35.90;30.00;98073.68;1870640;76;22083;-63
2021/06/13 07:00:27;;;;;;;4.97;2.50;;;;;;;35.86;30.32;98076.34;1870566;76;22461;-61
2021/06/13 07:03:04;;;;;;;4.50;2.47;;;;;;;36.13;30.27;98076.58;1889920;76;22058;-61
2021/06/13 07:05:39;;;;;;;4.47;2.33;;;;;;;36.87;29.62;98088.63;1870612;76;22058;-63
2021/06/13 07:08:25;;;;;;;4.28;2.22;;;;;;;37.36;28.91;98094.69;1760578;80;21173;-65
2021/06/13 07:11:00;;;;;;;7.40;2.20;;;;;;;38.04;27.82;98087.44;1870635;76;22050;-63
2021/06/13 07:13:37;;;;;;;5.80;2.50;;;;;;;38.62;27.19;98096.26;1854571;76;28335;-65
2021/06/13 07:16:11;;;;;;;7.10;2.70;;;;;;;39.38;26.16;98088.02;1854852;76;27938;-64
2021/06/13 07:18:52;;;;;;;6.92;2.67;;;;;;;40.15;25.38;98094.69;1869751;76;22110;-63
2021/06/13 07:21:27;;;;;;;3.62;2.25;;;;;;;40.71;24.66;98097.53;1858651;76;22114;-61
2021/06/13 07:24:02;;;;;;;5.05;2.58;;;;;;;40.44;24.29;98102.38;1856885;76;22113;-65
2021/06/13 07:26:38;;;;;;;3.87;2.15;;;;;;;39.65;25.15;98101.85;1840488;76;28022;-66
2021/06/13 07:29:12;;;;;;;3.95;2.15;;;;;;;39.58;25.51;98102.28;1853466;76;22108;-62
2021/06/13 07:31:47;;;;;;;5.78;2.20;;;;;;;39.54;25.59;98095.09;1864453;76;22522;-65
2021/06/13 07:34:42;;;;;;;4.58;2.50;;;;;;;39.38;25.55;98101.52;1837497;76;28443;-69
2021/06/13 07:37:23;;;;;;;6.03;2.40;;;;;;;39.52;25.30;98097.66;1868454;76;22095;-64
2021/06/13 07:40:04;;;;;;;4.08;2.60;;;;;;;39.65;25.22;98101.85;1871834;76;22078;-65
2021/06/13 07:42:40;;;;;;;3.87;2.17;;;;;;;39.57;24.93;98097.92;1864422;76;22154;-65
2021/06/13 07:45:16;;;;;;;3.83;2.25;;;;;;;39.07;25.36;98105.23;1840300;76;27902;-73
2021/06/13 07:47:52;;;;;;;6.45;2.60;;;;;;;39.28;25.35;98098.23;1846106;76;29502;-65
2021/06/13 07:50:26;;;;;;;4.35;2.27;;;;;;;39.82;24.83;98088.95;1852917;76;22186;-65
2021/06/13 07:53:01;;;;;;;6.60;2.70;;;;;;;39.57;25.07;98100.63;1854151;76;22207;-66
2021/06/13 07:55:38;;;;;;;5.35;2.45;;;;;;;39.36;24.94;98102.73;1855805;76;22127;-63
2021/06/13 07:58:13;;;;;;;5.08;2.35;;;;;;;39.00;25.52;98109.69;1855299;76;22089;-62
2021/06/13 08:00:50;;;;;;;5.03;2.67;;;;;;;39.54;25.08;98113.98;1884792;76;22261;-63
2021/06/13 08:03:24;;;;;;;6.47;2.45;;;;;;;39.35;24.99;98105.95;1861849;76;22510;-66
2021/06/13 08:05:58;;;;;;;5.95;2.80;;;;;;;37.99;25.84;98111.73;1851515;76;22094;-64
2021/06/13 08:08:40;;;;;;;5.10;3.10;;;;;;;36.82;27.55;98101.75;1857908;76;22127;-65
2021/06/13 08:11:14;;;;;;;4.42;2.80;;;;;;;35.81;28.80;98093.45;1861080;76;22490;-67
2021/06/13 08:13:49;;;;;;;5.97;2.55;;;;;;;35.57;29.79;98091.50;1855695;76;22081;-66
2021/06/13 08:16:25;;;;;;;6.20;2.90;;;;;;;35.92;29.46;98089.61;1837159;76;28032;-60
2021/06/13 08:19:06;;;;;;;6.37;2.67;;;;;;;36.18;29.36;98092.17;1861006;76;22116;-65
2021/06/13 08:21:49;;;;;;;5.65;3.10;;;;;;;35.85;29.47;98093.48;1853209;76;22117;-61
2021/06/13 08:24:22;;;;;;;5.80;3.05;;;;;;;34.32;31.56;98087.42;1854582;76;22487;-66
2021/06/13 08:26:57;;;;;;;7.03;3.40;;;;;;;32.78;33.88;98084.97;1836626;76;38336;-64
2021/06/13 08:29:33;;;;;;;5.22;2.85;;;;;;;31.81;35.97;98076.16;1855160;76;22103;-64
2021/06/13 08:32:08;;;;;;;4.85;2.92;;;;;;;31.91;36.37;98078.34;1856351;76;22214;-62
2021/06/13 08:34:43;;;;;;;5.70;3.52;;;;;;;32.00;36.10;98077.52;1841774;76;38762;-61
2021/06/13 08:37:18;;;;;;;7.40;3.40;;;;;;;30.62;38.61;98075.00;1847608;76;28088;-66
2021/06/13 08:39:53;;;;;;;5.87;3.80;;;;;;;28.73;42.25;98080.51;1859696;76;22096;-65
2021/06/13 08:42:28;;;;;;;8.48;4.15;;;;;;;27.34;45.20;98078.93;1856210;76;22218;-64
2021/06/13 08:45:12;;;;;;;6.58;4.10;;;;;;;26.60;47.84;98083.58;1855921;76;22114;-63
2021/06/13 08:47:49;;;;;;;6.85;4.42;;;;;;;26.02;48.93;98082.19;1858439;76;22293;-63
2021/06/13 08:50:30;;;;;;;6.17;4.58;;;;;;;25.64;50.61;98080.70;1851037;76;23022;-62
2021/06/13 08:53:06;;;;;;;7.50;4.90;;;;;;;24.99;51.83;98084.75;1853206;76;22361;-65
2021/06/13 08:56:00;;;;;;;6.87;4.97;;;;;;;24.45;54.61;98080.11;1849248;76;22629;-66
2021/06/13 08:58:47;;;;;;;6.20;4.28;;;;;;;24.09;55.28;98082.23;1821468;77;21136;-62
2021/06/13 09:01:23;;;;;;;8.43;5.30;;;;;;;23.97;56.79;98082.48;1838598;76;27997;-64
2021/06/13 09:03:58;;;;;;;9.40;5.85;;;;;;;23.86;57.23;98082.23;1838902;76;28102;-66
2021/06/13 09:06:34;;;;;;;8.20;6.05;;;;;;;23.74;57.18;98082.48;1855072;76;22162;-64
2021/06/13 09:09:26;;;;;;;7.87;5.62;;;;;;;23.81;57.28;98089.08;1836881;76;28408;-65
2021/06/13 09:12:07;;;;;;;5.65;4.50;;;;;;;24.05;56.46;98083.73;1854197;76;23031;-65
2021/06/13 09:14:47;;;;;;;5.53;4.35;;;;;;;24.54;55.36;98085.77;1859814;76;22187;-65
2021/06/13 09:17:28;;;;;;;7.20;4.65;;;;;;;24.75;54.61;98080.49;1864785;76;22195;-64
2021/06/13 09:20:08;;;;;;;6.53;3.87;;;;;;;24.82;53.97;98081.82;1851518;76;22661;-64
2021/06/13 09:23:12;;;;;;;7.35;3.65;;;;;;;24.79;53.82;98083.34;1852789;76;22147;-65
2021/06/13 09:25:50;;;;;;;4.75;3.22;;;;;;;25.10;53.10;98080.96;1856058;76;22179;-66
2021/06/13 09:28:26;;;;;;;5.65;3.30;;;;;;;25.25;52.39;98079.67;1860978;76;22138;-65
2021/06/13 09:31:24;;;;;;;4.58;3.10;;;;;;;24.99;52.98;98079.95;1856444;76;22207;-65
2021/06/13 09:34:00;;;;;;;4.85;3.00;;;;;;;24.62;53.32;98075.59;1850728;76;22221;-68
2021/06/13 09:36:36;;;;;;;6.35;3.12;;;;;;;24.37;54.12;98071.75;1851179;76;22160;-65
2021/06/13 09:39:14;;;;;;;5.87;3.35;;;;;;;24.07;55.39;98073.55;1820544;77;22199;-66
2021/06/13 09:41:50;;;;;;;3.75;2.75;;;;;;;23.64;56.95;98064.16;1837850;76;22558;-68
2021/06/13 09:44:37;;;;;;;5.72;2.85;;;;;;;23.28;57.75;98084.55;1799633;79;21563;-66
2021/06/13 09:47:12;;;;;;;4.30;2.85;;;;;;;23.14;58.25;98070.81;1858481;76;22588;-66
2021/06/13 09:49:47;;;;;;;4.45;2.72;;;;;;;22.98;58.93;98091.00;1856965;76;22174;-63
2021/06/13 09:52:28;;;;;;;3.50;2.42;;;;;;;22.86;58.91;98069.26;1851456;76;22257;-63
2021/06/13 09:55:16;;;;;;;6.85;2.70;;;;;;;22.51;58.72;98092.52;1823672;78;21148;-64
2021/06/13 09:58:06;;;;;;;4.22;2.25;;;;;;;22.15;59.23;98099.16;1860601;76;22551;-65
2021/06/13 10:00:41;;;;;;;4.95;2.25;;;;;;;21.88;59.66;98109.27;1860685;76;22210;-66
2021/06/13 10:03:29;;;;;;;3.47;2.27;;;;;;;21.78;60.30;98114.11;1839699;76;28047;-67
2021/06/13 10:06:07;;;;;;;6.28;1.85;;;;;;;22.02;59.56;98116.46;1864236;76;22586;-64
2021/06/13 10:08:42;;;;;;;3.05;1.50;;;;;;;22.20;58.26;98093.70;1847926;76;22190;-65
2021/06/13 10:11:19;;;;;;;2.27;1.20;;;;;;;22.22;57.61;98106.31;1855221;76;22574;-64
2021/06/13 10:14:12;;;;;;;2.70;1.50;;;;;;;22.03;57.13;98101.06;1810837;78;21537;-65
2021/06/13 10:16:51;;;;;;;4.10;1.70;;;;;;;21.94;57.63;98112.89;1844287;76;22633;-64
2021/06/13 10:19:47;;;;;;;3.35;1.40;;;;;;;21.77;57.72;98097.94;1855351;76;22128;-66
2021/06/13 10:22:23;;;;;;;2.27;1.20;;;;;;;21.49;57.71;98086.59;1856164;76;22186;-64
2021/06/13 10:24:59;;;;;;;1.65;1.00;;;;;;;21.25;58.13;98095.14;1861673;76;22606;-63
2021/06/13 10:27:34;;;;;;;2.30;1.20;;;;;;;21.17;57.93;98106.45;1837226;76;28078;-65
2021/06/13 10:30:18;;;;;;;2.83;1.10;;;;;;;21.20;58.15;98077.45;1854438;76;22637;-64
2021/06/13 10:32:51;;;;;;;2.30;1.10;;;;;;;21.19;57.86;98099.34;1836982;76;27964;-64
2021/06/13 10:35:27;;;;;;;2.65;1.30;;;;;;;21.19;57.97;98094.97;1839319;76;28301;-67
2021/06/13 10:38:01;;;;;;;1.80;1.10;;;;;;;21.12;58.04;98067.77;1852432;76;22197;-63
2021/06/13 10:40:42;;;;;;;2.90;1.30;;;;;;;20.98;58.21;98054.80;1849308;76;22634;-65
2021/06/13 10:43:30;;;;;;;1.65;0.98;;;;;;;20.90;58.37;98068.73;1812886;78;21110;-66
2021/06/13 10:46:08;;;;;;;2.77;1.30;;;;;;;20.89;58.26;98051.31;1852310;76;22610;-65
2021/06/13 10:48:51;;;;;;;2.70;1.10;;;;;;;20.78;58.24;98062.73;1850050;76;22562;-65
2021/06/13 10:51:34;;;;;;;3.50;1.27;;;;;;;20.76;58.70;98072.42;1862535;76;22186;-66
2021/06/13 10:54:31;;;;;;;2.47;1.30;;;;;;;20.67;57.73;98089.89;1855200;76;22191;-65
2021/06/13 10:57:12;;;;;;;10.43;1.30;;;;;;;20.71;57.39;98118.98;1852921;76;22159;-65
2021/06/13 11:00:02;;;;;;;2.97;1.13;;;;;;;20.89;57.63;98133.05;1812994;78;21268;-66
2021/06/13 11:02:42;;;;;;;1.77;1.05;;;;;;;21.20;56.95;98137.80;1853136;76;22167;-66
2021/06/13 11:05:42;;;;;;;1.72;0.80;;;;;;;21.43;56.60;98141.55;1850406;76;22167;-65
2021/06/13 11:08:18;;;;;;;3.62;1.20;;;;;;;21.80;56.09;98138.50;1853426;76;22175;-63
2021/06/13 11:10:53;;;;;;;1.87;0.95;;;;;;;22.17;54.21;98123.58;1853811;76;22198;-65
2021/06/13 11:13:29;;;;;;;1.55;0.80;;;;;;;22.46;54.16;98135.28;1855616;76;22160;-65
2021/06/13 11:16:10;;;;;;;1.80;0.90;;;;;;;22.66;51.87;98129.48;1854299;76;22186;-64
2021/06/13 11:18:46;;;;;;;2.90;0.80;;;;;;;22.80;51.56;98130.95;1851559;76;22287;-63
2021/06/13 11:21:22;;;;;;;1.95;1.00;;;;;;;22.71;51.67;98120.42;1842428;76;28555;-66
2021/06/13 11:23:58;;;;;;;3.05;1.10;;;;;;;22.75;51.92;98110.13;1835068;76;27976;-65
2021/06/13 11:26:36;;;;;;;1.57;0.80;;;;;;;22.80;50.84;98119.58;1853808;76;22209;-66
2021/06/13 11:29:13;;;;;;;1.82;0.70;;;;;;;22.87;51.28;98116.98;1846448;76;22163;-65
2021/06/13 11:31:51;;;;;;;2.08;0.90;;;;;;;22.73;51.02;98108.05;1847459;76;22282;-63
2021/06/13 11:34:49;;;;;;;1.55;0.82;;;;;;;22.65;51.60;98115.48;1806689;78;21141;-64
2021/06/13 11:37:26;;;;;;;2.27;1.00;;;;;;;22.71;52.44;98119.11;1851631;76;22157;-63
2021/06/13 11:40:04;;;;;;;2.00;1.10;;;;;;;22.70;53.01;98134.52;1865765;76;22207;-64
2021/06/13 11:43:01;;;;;;;2.70;0.75;;;;;;;22.59;52.59;98141.24;1855365;76;22109;-64
2021/06/13 11:45:36;;;;;;;1.72;0.82;;;;;;;22.56;51.41;98133.05;1855660;76;22199;-65
2021/06/13 11:48:26;;;;;;;2.80;0.80;;;;;;;22.34;51.57;98139.88;1814238;78;21106;-68
2021/06/13 11:51:16;;;;;;;2.12;1.00;;;;;;;22.17;51.40;98117.48;1861584;76;22171;-66
2021/06/13 11:54:07;;;;;;;1.67;1.05;;;;;;;21.88;52.49;98133.75;1852397;76;22179;-64
2021/06/13 11:56:44;;;;;;;2.75;0.82;;;;;;;21.78;52.67;98145.62;1856314;76;22275;-63
2021/06/13 11:59:30;;;;;;;1.52;0.80;;;;;;;21.79;53.31;98146.47;1824972;77;21141;-63
2021/06/13 12:02:05;;;;;;;4.60;0.93;;;;;;;21.82;53.62;98146.31;1854506;76;22258;-64
2021/06/13 12:04:44;;;;;;;1.92;0.80;;;;;;;21.94;53.58;98147.52;1853349;76;22166;-64
2021/06/13 12:07:17;;;;;;;1.55;0.78;;;;;;;22.07;53.10;98159.13;1863705;76;20118;-63
2021/06/13 12:10:28;;;;;;;1.72;0.90;;;;;;;22.14;52.80;98147.39;1853417;75;22192;-67
2021/06/13 12:13:08;;;;;;;2.60;1.32;;;;;;;22.15;52.83;98145.61;1871090;76;22245;-67
2021/06/13 12:15:53;;;;;;;3.37;0.88;;;;;;;21.99;53.73;98159.97;1831562;77;21145;-65
2021/06/13 12:18:28;;;;;;;1.80;0.70;;;;;;;22.01;53.40;98156.81;1845518;76;22171;-66
2021/06/13 12:21:05;;;;;;;2.27;1.10;;;;;;;22.04;53.59;98155.34;1889899;76;20096;-65
2021/06/13 12:23:50;;;;;;;1.98;1.00;;;;;;;22.04;53.29;98165.84;1842891;76;22191;-65
2021/06/13 12:29:29;;;;;;;2.60;0.70;;;;;;;22.38;52.29;98170.79;1850676;76;22164;-66
2021/06/13 12:32:17;;;;;;;2.42;0.88;;;;;;;22.36;51.96;98178.73;1797625;78;21177;-63